Time;durP1;ratioP1;P1;durP2;ratioP2;P2;SDS_P1;SDS_P2;PMS_P1;PMS_P2;Temp;Humidity;BMP_temperature;BMP_pressure;BME280_temperature;BME280_humidity;BME280_pressure;Samples;Min_cycle;Max_cycle;Signal;HPM_P1;HPM_P2
2022/08/01 00:00:04;;;;;;;13.90;7.82;;;;;;;26.59;46.52;100247.97;5027968;28;20407;-67
2022/08/01 00:02:31;;;;;;;;;;;;;;;26.57;46.72;100243.88;5024191;28;20132;-66
2022/08/01 00:04:59;;;;;;;11.45;8.13;;;;;;;26.68;46.06;100242.75;5029847;28;19951;-65
2022/08/01 00:07:26;;;;;;;9.57;8.07;;;;;;;26.70;45.95;100248.91;5020151;28;20054;-65
2022/08/01 00:09:53;;;;;;;10.70;7.90;;;;;;;26.73;46.14;100250.13;5026469;28;20132;-64
2022/08/01 00:12:20;;;;;;;11.32;7.57;;;;;;;26.74;46.02;100245.25;5026894;28;20148;-65
2022/08/01 00:14:47;;;;;;;10.15;8.02;;;;;;;26.78;45.48;100234.63;5027495;28;20132;-65
2022/08/01 00:17:14;;;;;;;10.05;7.63;;;;;;;26.70;45.20;100217.41;5029388;28;20133;-65
2022/08/01 00:19:41;;;;;;;11.13;8.23;;;;;;;26.89;45.11;100232.66;5026790;28;20153;-65
2022/08/01 00:22:08;;;;;;;13.05;8.25;;;;;;;26.92;45.23;100231.84;5027299;28;20085;-64
2022/08/01 00:24:35;;;;;;;13.63;8.55;;;;;;;26.82;44.90;100203.97;5031311;28;20080;-65
2022/08/01 00:27:02;;;;;;;14.20;7.55;;;;;;;26.91;44.86;100218.75;5026355;28;20135;-65
2022/08/01 00:29:29;;;;;;;11.23;8.25;;;;;;;26.93;44.90;100222.03;5019771;28;20528;-64
2022/08/01 00:32:16;;;;;;;11.07;8.13;;;;;;;26.75;44.85;100189.59;5031698;28;20442;-65
2022/08/01 00:34:43;;;;;;;11.50;7.85;;;;;;;26.78;45.08;100203.94;5032623;28;20149;-65
2022/08/01 00:37:09;;;;;;;12.73;7.47;;;;;;;26.88;45.23;100208.09;5028930;28;20148;-65
2022/08/01 00:39:41;;;;;;;11.90;7.68;;;;;;;26.91;45.48;100201.56;5023655;28;20443;-66
2022/08/01 00:42:12;;;;;;;14.75;7.80;;;;;;;26.93;45.44;100193.38;5028518;28;20045;-65
2022/08/01 00:44:39;;;;;;;10.13;6.93;;;;;;;26.96;45.36;100197.47;5022588;28;21497;-66
2022/08/01 00:47:07;;;;;;;10.05;8.05;;;;;;;26.96;45.54;100197.47;5026994;28;20050;-66
2022/08/01 00:49:34;;;;;;;14.63;6.88;;;;;;;26.81;45.58;100180.22;5022392;28;20136;-67
2022/08/01 00:52:04;;;;;;;12.55;7.97;;;;;;;26.93;45.57;100199.09;5028322;28;20464;-65
2022/08/01 00:54:31;;;;;;;14.48;8.25;;;;;;;26.69;45.92;100181.34;5021901;28;20388;-65
2022/08/01 00:56:59;;;;;;;14.43;8.40;;;;;;;26.79;45.91;100190.44;5031207;28;20522;-66
2022/08/01 00:59:26;;;;;;;16.38;9.32;;;;;;;26.62;45.85;100171.91;5024663;28;20058;-66
2022/08/01 01:01:53;;;;;;;12.65;8.02;;;;;;;26.54;45.93;100168.19;5024308;28;20397;-66
2022/08/01 01:04:21;;;;;;;11.82;8.30;;;;;;;26.55;46.42;100189.84;5023007;28;20049;-66
2022/08/01 01:07:10;;;;;;;12.55;7.70;;;;;;;26.46;46.47;100189.34;5025025;28;20180;-66
2022/08/01 01:09:52;;;;;;;14.32;7.85;;;;;;;26.43;46.72;100181.56;5022507;28;20136;-65
2022/08/01 01:12:36;;;;;;;11.63;7.72;;;;;;;26.32;46.78;100186.38;5031466;28;20104;-66
2022/08/01 01:15:15;;;;;;;10.38;7.60;;;;;;;26.23;46.77;100184.69;5021601;28;20045;-66
2022/08/01 01:18:03;;;;;;;12.10;8.00;;;;;;;26.18;47.29;100182.19;5026740;28;20077;-66
2022/08/01 01:20:35;;;;;;;8.90;7.43;;;;;;;26.11;47.54;100175.56;5025818;28;20049;-66
2022/08/01 01:23:20;;;;;;;15.40;8.57;;;;;;;26.05;47.54;100183.72;5028152;28;20077;-66
2022/08/01 01:26:09;;;;;;;15.88;7.47;;;;;;;26.01;47.62;100179.97;5025845;28;20077;-66
2022/08/01 01:28:54;;;;;;;16.15;8.52;;;;;;;25.97;47.89;100173.41;5029337;28;20514;-65
2022/08/01 01:31:25;;;;;;;11.57;7.82;;;;;;;25.96;48.09;100178.31;5025671;28;20081;-66
2022/08/01 01:33:54;;;;;;;13.55;8.00;;;;;;;25.89;48.19;100160.28;5027347;28;20152;-66
2022/08/01 01:36:22;;;;;;;11.95;8.68;;;;;;;25.88;48.45;100155.75;5021284;28;20129;-65
2022/08/01 01:38:51;;;;;;;11.00;8.10;;;;;;;25.74;48.44;100131.50;5031188;28;20619;-65
2022/08/01 01:41:18;;;;;;;;;;;;;;;25.83;48.14;100167.56;5024115;28;20059;-66
2022/08/01 01:43:47;;;;;;;13.38;8.05;;;;;;;25.76;48.50;100154.78;5028537;28;19968;-65
2022/08/01 01:46:19;;;;;;;13.52;7.25;;;;;;;25.77;48.63;100149.88;5026584;28;20083;-64
2022/08/01 01:48:47;;;;;;;11.73;8.20;;;;;;;25.87;48.58;100159.81;5026226;28;20149;-64
2022/08/01 01:51:16;;;;;;;11.48;7.32;;;;;;;25.82;48.81;100158.16;5025705;28;20045;-64
2022/08/01 01:53:43;;;;;;;9.23;7.32;;;;;;;25.83;48.76;100168.38;5025790;28;20058;-64
2022/08/01 01:56:14;;;;;;;20.40;8.07;;;;;;;25.87;48.90;100177.81;5021695;28;20049;-65
2022/08/01 01:58:43;;;;;;;10.05;7.65;;;;;;;25.71;49.00;100146.59;5022833;28;20136;-65
2022/08/01 02:01:11;;;;;;;9.90;7.00;;;;;;;25.85;49.18;100165.13;5028148;28;20144;-65
2022/08/01 02:03:43;;;;;;;11.18;8.07;;;;;;;25.70;49.45;100149.81;5023343;28;20132;-65
2022/08/01 02:06:13;;;;;;;14.05;8.05;;;;;;;25.81;49.17;100164.25;5027224;28;20137;-65
2022/08/01 02:08:42;;;;;;;14.48;7.85;;;;;;;25.62;49.25;100137.50;5028773;28;20136;-65
2022/08/01 02:11:19;;;;;;;15.57;7.32;;;;;;;25.76;49.28;100162.56;5020344;28;20143;-65
2022/08/01 02:13:58;;;;;;;11.40;7.25;;;;;;;25.58;49.63;100136.66;5031301;28;20102;-67
2022/08/01 02:16:28;;;;;;;17.02;8.10;;;;;;;25.71;49.26;100155.16;5022157;28;20064;-67
2022/08/01 02:18:55;;;;;;;11.43;7.47;;;;;;;25.69;49.50;100154.72;5023051;28;20136;-66
2022/08/01 02:21:34;;;;;;;12.10;7.15;;;;;;;25.58;49.36;100130.94;5025454;28;20045;-66
2022/08/01 02:24:14;;;;;;;13.05;6.80;;;;;;;25.69;49.84;100142.47;5025225;28;20202;-64
2022/08/01 02:26:46;;;;;;;21.17;7.65;;;;;;;25.70;49.77;100147.78;5018460;28;20124;-66
2022/08/01 02:29:21;;;;;;;10.93;6.82;;;;;;;25.70;49.98;100156.38;5024927;28;20108;-65
2022/08/01 02:31:49;;;;;;;14.23;7.75;;;;;;;25.47;49.86;100118.53;5026708;28;20053;-67
2022/08/01 02:34:18;;;;;;;13.23;8.45;;;;;;;25.60;50.04;100127.66;5029433;28;20563;-66
2022/08/01 02:36:47;;;;;;;15.30;7.70;;;;;;;25.69;50.10;100143.28;5029054;28;20073;-66
2022/08/01 02:39:17;;;;;;;;;;;;;;;25.61;49.60;100153.03;5026344;28;20080;-65
2022/08/01 02:41:48;;;;;;;12.32;6.90;;;;;;;25.62;49.99;100134.63;5025482;28;19921;-66
2022/08/01 02:44:25;;;;;;;9.57;6.60;;;;;;;25.68;49.92;100144.50;5028370;28;20053;-66
2022/08/01 02:47:01;;;;;;;11.77;7.30;;;;;;;25.70;49.84;100149.81;5028838;28;20056;-67
2022/08/01 02:49:35;;;;;;;10.88;7.40;;;;;;;25.60;50.02;100131.34;5025322;28;20077;-67
2022/08/01 02:52:07;;;;;;;9.70;7.10;;;;;;;25.68;49.68;100140.84;5027885;28;20053;-66
2022/08/01 02:54:36;;;;;;;12.25;7.30;;;;;;;25.69;50.21;100149.00;5020453;28;20065;-65
2022/08/01 02:57:05;;;;;;;13.05;7.70;;;;;;;25.59;49.79;100129.72;5025641;28;20133;-65
2022/08/01 02:59:37;;;;;;;12.75;7.70;;;;;;;25.61;50.24;100127.28;5026593;28;20136;-66
2022/08/01 03:02:08;;;;;;;9.57;6.80;;;;;;;25.60;50.31;100128.47;5025696;28;20061;-66
2022/08/01 03:04:37;;;;;;;9.32;7.10;;;;;;;25.63;50.29;100121.16;5029168;28;20057;-65
2022/08/01 03:07:07;;;;;;;14.13;7.78;;;;;;;25.68;50.50;100137.97;5027610;28;20080;-65
2022/08/01 03:09:36;;;;;;;;;;;;;;;25.55;49.98;100143.16;5027256;28;20124;-64
2022/08/01 03:12:07;;;;;;;10.07;6.78;;;;;;;25.68;50.26;100135.94;5024720;28;19968;-64
2022/08/01 03:14:37;;;;;;;12.77;6.93;;;;;;;25.71;50.06;100120.03;5029365;28;20049;-64
2022/08/01 03:17:05;;;;;;;11.13;6.68;;;;;;;25.77;50.16;100127.81;5030277;28;20140;-65
2022/08/01 03:19:33;;;;;;;12.52;7.30;;;;;;;25.75;50.11;100130.28;5029545;28;20236;-65
2022/08/01 03:22:05;;;;;;;12.77;6.85;;;;;;;25.75;50.43;100124.56;5026574;28;20176;-64
2022/08/01 03:24:35;;;;;;;12.02;7.90;;;;;;;25.63;50.83;100116.25;5028977;28;20132;-64
2022/08/01 03:27:03;;;;;;;12.68;7.00;;;;;;;25.67;51.01;100117.09;5026124;28;20076;-65
2022/08/01 03:29:34;;;;;;;11.60;7.45;;;;;;;25.63;50.79;100121.16;5026973;28;20503;-65
2022/08/01 03:32:02;;;;;;;12.80;8.05;;;;;;;25.51;50.61;100108.00;5028517;28;20571;-65
2022/08/01 03:34:30;;;;;;;10.73;7.13;;;;;;;25.38;51.09;100098.03;5030200;28;20075;-65
2022/08/01 03:37:20;;;;;;;12.40;7.47;;;;;;;25.47;50.88;100118.53;5025504;28;20141;-66
2022/08/01 03:39:51;;;;;;;11.50;6.70;;;;;;;25.41;51.11;100114.41;5026723;28;20132;-64
2022/08/01 03:42:23;;;;;;;10.02;7.07;;;;;;;25.33;51.25;100106.97;5029523;28;20137;-65
2022/08/01 03:44:56;;;;;;;11.32;6.28;;;;;;;25.16;51.47;100088.41;5024813;28;20504;-65
2022/08/01 03:47:29;;;;;;;12.30;7.35;;;;;;;25.17;51.44;100092.94;5018390;28;20077;-65
2022/08/01 03:49:58;;;;;;;12.98;7.97;;;;;;;25.32;51.69;100105.31;5031568;28;20140;-67
2022/08/01 03:52:29;;;;;;;12.43;6.45;;;;;;;25.31;51.92;100098.78;5032005;28;20539;-66
2022/08/01 03:54:59;;;;;;;9.63;6.30;;;;;;;25.26;51.63;100097.13;5027811;28;20768;-67
2022/08/01 03:57:28;;;;;;;10.15;7.55;;;;;;;25.31;51.96;100098.78;5031690;28;20124;-65
2022/08/01 04:00:07;;;;;;;14.02;7.50;;;;;;;25.19;51.76;100079.06;5031040;28;20104;-65
2022/08/01 04:02:34;;;;;;;11.35;7.53;;;;;;;25.31;51.69;100110.22;5013524;28;20128;-65
2022/08/01 04:05:03;;;;;;;11.77;7.00;;;;;;;25.21;51.91;100079.50;5031981;28;20148;-65
2022/08/01 04:07:32;;;;;;;11.30;7.32;;;;;;;25.10;51.95;100065.06;5029197;28;20135;-65
2022/08/01 04:09:59;;;;;;;11.57;6.38;;;;;;;25.03;52.14;100071.50;5025330;28;20133;-66
2022/08/01 04:12:26;;;;;;;10.93;6.53;;;;;;;24.98;52.53;100079.59;5028845;28;20112;-65
2022/08/01 04:14:52;;;;;;;11.10;6.57;;;;;;;25.10;52.13;100109.97;5066903;28;20148;-66
2022/08/01 04:17:19;;;;;;;14.60;6.95;;;;;;;25.11;52.38;100112.44;5030053;28;20732;-65
2022/08/01 04:19:46;;;;;;;12.05;7.15;;;;;;;25.07;52.57;100097.25;5031451;28;20075;-65
2022/08/01 04:22:14;;;;;;;12.10;7.32;;;;;;;25.16;52.24;100096.97;5028250;28;20136;-66
2022/08/01 04:24:48;;;;;;;13.95;7.22;;;;;;;25.14;52.19;100103.09;5027429;28;20478;-65
2022/08/01 04:27:28;;;;;;;10.25;7.47;;;;;;;25.03;52.34;100087.84;5028134;28;20042;-64
2022/08/01 04:30:19;;;;;;;12.45;6.18;;;;;;;25.06;52.37;100107.06;5032686;28;20053;-64
2022/08/01 04:32:47;;;;;;;9.13;6.57;;;;;;;25.13;52.82;100109.19;5032737;28;21901;-65
2022/08/01 04:35:18;;;;;;;9.80;6.15;;;;;;;25.10;52.84;100104.25;5029408;28;20136;-65
2022/08/01 04:38:06;;;;;;;13.57;7.10;;;;;;;25.17;52.52;100107.22;5031731;28;20417;-65
2022/08/01 04:40:35;;;;;;;10.93;6.72;;;;;;;25.28;52.84;100114.69;5028246;28;20073;-65
2022/08/01 04:43:03;;;;;;;13.25;6.43;;;;;;;25.25;52.37;100091.78;5030205;28;20139;-65
2022/08/01 04:45:38;;;;;;;11.00;6.15;;;;;;;25.26;52.65;100090.56;5029125;28;20141;-65
2022/08/01 04:48:16;;;;;;;10.18;6.53;;;;;;;25.01;52.42;100055.97;5031608;28;20071;-65
2022/08/01 04:50:49;;;;;;;9.15;6.90;;;;;;;25.40;52.28;100107.88;5028867;28;20102;-67
2022/08/01 04:53:21;;;;;;;11.15;6.70;;;;;;;25.41;52.35;100105.84;5030289;28;20100;-64
2022/08/01 04:55:48;;;;;;;10.88;7.03;;;;;;;25.44;52.32;100114.44;5030560;28;20053;-65
2022/08/01 04:58:15;;;;;;;11.70;6.80;;;;;;;25.50;52.56;100110.03;5031587;28;20208;-66
2022/08/01 05:00:45;;;;;;;11.32;7.15;;;;;;;25.47;52.40;100107.94;5022681;28;20420;-68
2022/08/01 05:03:12;;;;;;;9.98;6.28;;;;;;;25.25;52.15;100078.31;5032100;28;20115;-67
2022/08/01 05:05:38;;;;;;;12.98;7.10;;;;;;;25.32;52.08;100089.00;5027993;28;20106;-64
2022/08/01 05:08:05;;;;;;;10.75;6.70;;;;;;;25.13;52.14;100060.59;5026687;28;20085;-64
2022/08/01 05:10:33;;;;;;;12.57;6.97;;;;;;;25.15;52.26;100069.63;5025269;28;20060;-63
2022/08/01 05:13:00;;;;;;;11.10;7.03;;;;;;;25.34;52.29;100108.63;5030327;28;20057;-65
2022/08/01 05:15:26;;;;;;;13.18;6.65;;;;;;;25.28;52.74;100117.53;5031943;28;20128;-65
2022/08/01 05:17:54;;;;;;;13.05;7.35;;;;;;;25.25;52.52;100120.34;5016044;28;20049;-65
2022/08/01 05:20:21;;;;;;;15.15;6.78;;;;;;;25.16;52.67;100126.41;5029370;28;20565;-65
2022/08/01 05:22:48;;;;;;;12.55;6.60;;;;;;;25.03;53.16;100105.78;5033272;28;20137;-66
2022/08/01 05:25:15;;;;;;;10.98;6.70;;;;;;;24.95;53.20;100100.38;5041227;23;20137;-65
2022/08/01 05:27:50;;;;;;;11.90;7.25;;;;;;;25.04;53.28;100113.16;5015102;28;20053;-67
2022/08/01 05:30:17;;;;;;;9.48;6.55;;;;;;;24.64;53.16;100071.03;5030492;28;20153;-66
2022/08/01 05:32:44;;;;;;;15.13;7.07;;;;;;;24.95;52.96;100126.06;5031677;28;20076;-66
2022/08/01 05:35:11;;;;;;;13.68;7.85;;;;;;;24.91;53.47;100119.50;5031514;28;20136;-68
2022/08/01 05:37:38;;;;;;;12.15;7.68;;;;;;;24.67;53.34;100101.66;5029895;28;20077;-68
2022/08/01 05:40:05;;;;;;;15.07;5.95;;;;;;;24.76;53.06;100122.19;5023176;28;20140;-66
2022/08/01 05:42:32;;;;;;;12.07;7.18;;;;;;;24.69;53.47;100124.13;5032724;28;20494;-67
2022/08/01 05:44:59;;;;;;;11.57;7.03;;;;;;;24.72;53.69;100141.31;5022626;28;20473;-67
2022/08/01 05:47:26;;;;;;;11.35;7.28;;;;;;;24.64;53.72;100139.53;5025212;28;20132;-67
2022/08/01 05:49:53;;;;;;;7.75;6.40;;;;;;;24.59;53.82;100137.03;5033389;28;20485;-67
2022/08/01 05:52:20;;;;;;;11.25;7.43;;;;;;;24.56;53.72;100137.81;5033753;28;20128;-66
2022/08/01 05:54:46;;;;;;;10.68;7.22;;;;;;;24.55;53.46;100142.69;5030579;28;22283;-66
2022/08/01 05:57:13;;;;;;;12.25;7.90;;;;;;;24.44;53.52;100135.97;5020441;28;20445;-66
2022/08/01 05:59:40;;;;;;;14.18;7.55;;;;;;;24.20;52.85;100088.72;5026419;28;20499;-63
2022/08/01 06:02:07;;;;;;;13.52;8.23;;;;;;;24.54;52.63;100143.06;5028117;28;20567;-65
2022/08/01 06:04:35;;;;;;;14.73;7.93;;;;;;;24.60;52.51;100144.38;5023266;28;20415;-66
2022/08/01 06:07:02;;;;;;;11.70;7.85;;;;;;;24.61;52.57;100146.03;5027621;28;20462;-67
2022/08/01 06:09:30;;;;;;;14.80;7.60;;;;;;;24.81;52.41;100156.09;5029259;28;20467;-65
2022/08/01 06:11:57;;;;;;;11.25;7.53;;;;;;;24.93;52.13;100160.75;5023831;28;20060;-66
2022/08/01 06:14:24;;;;;;;14.55;8.00;;;;;;;25.04;51.58;100158.84;5026053;28;20791;-66
2022/08/01 06:16:51;;;;;;;10.63;6.68;;;;;;;25.22;51.52;100178.28;5021035;28;20096;-65
2022/08/01 06:19:18;;;;;;;14.45;8.63;;;;;;;25.16;51.21;100152.13;5020351;28;20057;-64
2022/08/01 06:21:45;;;;;;;11.10;7.45;;;;;;;25.48;50.90;100185.97;5017850;28;20049;-65
2022/08/01 06:24:11;;;;;;;11.07;7.28;;;;;;;25.50;50.39;100163.50;5022976;28;20504;-65
2022/08/01 06:26:38;;;;;;;13.25;7.00;;;;;;;25.47;50.72;100129.97;5021763;28;20180;-65
2022/08/01 06:29:07;;;;;;;10.43;7.57;;;;;;;25.94;50.47;100182.78;5026989;28;20141;-65
2022/08/01 06:31:35;;;;;;;11.52;7.55;;;;;;;26.10;50.46;100173.94;5021484;28;20092;-65
2022/08/01 06:34:02;;;;;;;10.50;7.00;;;;;;;26.23;50.52;100166.69;5023184;28;20519;-67
2022/08/01 06:36:29;;;;;;;14.75;9.00;;;;;;;26.38;50.17;100159.03;5022555;28;22895;-66
2022/08/01 06:38:56;;;;;;;10.77;7.97;;;;;;;26.67;50.36;100180.97;5027952;28;20152;-69
2022/08/01 06:41:23;;;;;;;11.45;7.53;;;;;;;26.89;49.70;100189.66;5019921;28;21707;-65
2022/08/01 06:43:50;;;;;;;15.07;7.35;;;;;;;26.95;49.70;100182.34;5018450;28;20050;-66
2022/08/01 06:46:17;;;;;;;19.98;8.85;;;;;;;27.02;49.87;100182.38;5025510;28;20466;-67
2022/08/01 06:48:43;;;;;;;20.50;8.70;;;;;;;27.15;49.73;100182.88;5024471;28;20140;-66
2022/08/01 06:51:15;;;;;;;17.42;7.80;;;;;;;27.07;49.62;100163.97;5021053;28;20156;-66
2022/08/01 06:53:42;;;;;;;18.67;7.47;;;;;;;27.20;49.78;100173.88;5018142;28;20111;-65
2022/08/01 06:56:10;;;;;;;14.10;7.70;;;;;;;27.36;49.73;100182.16;5024349;28;20142;-66
2022/08/01 06:58:37;;;;;;;15.32;7.13;;;;;;;27.46;49.55;100180.53;5018021;28;20050;-66
2022/08/01 07:01:08;;;;;;;11.18;6.32;;;;;;;27.73;49.37;100183.91;5022348;28;20072;-67
2022/08/01 07:03:36;;;;;;;10.93;6.05;;;;;;;27.81;48.94;100169.19;5014351;28;20049;-66
2022/08/01 07:06:22;;;;;;;9.68;6.15;;;;;;;27.87;48.79;100161.00;5016838;28;20081;-66
2022/08/01 07:08:48;;;;;;;13.10;6.65;;;;;;;28.07;48.62;100178.66;5020652;28;20132;-65
2022/08/01 07:11:15;;;;;;;15.18;7.20;;;;;;;27.95;48.87;100168.38;5019532;28;20143;-66
2022/08/01 07:13:42;;;;;;;16.85;7.55;;;;;;;28.22;48.44;100183.16;5017605;28;20136;-65
2022/08/01 07:16:15;;;;;;;10.60;6.55;;;;;;;28.43;48.35;100185.22;5015046;28;20054;-66
2022/08/01 07:18:43;;;;;;;16.40;6.88;;;;;;;28.60;47.89;100185.63;5017352;28;20144;-65
2022/08/01 07:21:10;;;;;;;20.20;7.25;;;;;;;28.67;47.80;100191.34;5015216;28;20192;-65
2022/08/01 07:23:57;;;;;;;15.60;8.00;;;;;;;28.66;47.93;100167.53;5014592;28;20054;-66
2022/08/01 07:26:26;;;;;;;11.83;6.93;;;;;;;29.16;47.19;100207.69;5020744;28;20049;-66
2022/08/01 07:28:53;;;;;;;13.40;7.53;;;;;;;29.38;46.65;100188.28;5018141;28;20152;-66
2022/08/01 07:31:20;;;;;;;16.67;9.00;;;;;;;29.57;46.58;100204.19;5033379;28;20139;-64
2022/08/01 07:33:47;;;;;;;13.32;8.63;;;;;;;29.73;46.27;100183.59;5029726;28;20077;-65
2022/08/01 07:36:16;;;;;;;14.75;8.45;;;;;;;30.20;45.34;100189.88;5023119;28;20053;-65
2022/08/01 07:38:43;;;;;;;15.77;7.80;;;;;;;30.39;45.07;100186.44;5026074;28;20135;-65
2022/08/01 07:41:10;;;;;;;13.55;8.93;;;;;;;30.59;44.62;100194.47;5017166;28;20073;-66
2022/08/01 07:43:37;;;;;;;18.67;9.63;;;;;;;30.72;44.00;100198.44;5027977;28;20067;-66
2022/08/01 07:46:04;;;;;;;12.45;8.90;;;;;;;30.79;43.72;100201.28;5025008;28;20492;-66
2022/08/01 07:48:32;;;;;;;14.90;9.00;;;;;;;30.88;43.70;100180.63;5028523;28;20045;-66
2022/08/01 07:50:59;;;;;;;16.05;9.55;;;;;;;31.12;43.01;100204.66;5033293;28;20088;-66
2022/08/01 07:53:26;;;;;;;15.73;9.30;;;;;;;31.21;42.98;100207.81;5031456;28;20056;-66
2022/08/01 07:55:52;;;;;;;16.08;10.77;;;;;;;31.23;42.94;100192.97;5027146;28;20137;-66
2022/08/01 07:58:19;;;;;;;18.90;11.13;;;;;;;31.16;42.51;100159.25;5021960;28;20144;-66
2022/08/01 08:00:46;;;;;;;19.95;11.75;;;;;;;31.22;41.57;100186.41;5022802;28;20145;-66
2022/08/01 08:03:13;;;;;;;19.52;11.25;;;;;;;31.11;41.61;100179.91;5023819;28;20140;-66
2022/08/01 08:05:40;;;;;;;16.77;12.35;;;;;;;31.30;41.83;100193.69;5019678;28;20133;-66
2022/08/01 08:08:24;;;;;;;22.27;13.05;;;;;;;31.49;41.30;100211.63;5027668;28;20071;-66
2022/08/01 08:10:51;;;;;;;23.55;12.52;;;;;;;31.10;40.76;100167.56;5023287;28;20419;-66
2022/08/01 08:13:18;;;;;;;18.52;12.65;;;;;;;31.17;40.57;100179.00;5021939;28;20153;-66
2022/08/01 08:15:46;;;;;;;23.88;14.00;;;;;;;31.34;40.08;100200.25;5021489;28;20634;-66
2022/08/01 08:18:14;;;;;;;23.23;13.80;;;;;;;31.42;40.10;100200.16;5017963;28;20141;-66
2022/08/01 08:20:41;;;;;;;22.40;14.35;;;;;;;31.31;39.52;100191.63;5018656;28;20051;-67
2022/08/01 08:26:09;;;;;;;23.98;13.85;;;;;;;31.98;39.26;100195.69;5021105;28;20135;-66
2022/08/01 08:28:36;;;;;;;21.67;12.77;;;;;;;32.25;38.52;100197.75;5020575;28;20060;-66
2022/08/01 08:31:06;;;;;;;21.15;12.82;;;;;;;32.48;38.02;100196.97;5020525;28;20078;-66
2022/08/01 08:33:32;;;;;;;19.83;11.55;;;;;;;32.59;37.81;100203.38;5019757;28;20079;-66
2022/08/01 08:35:59;;;;;;;16.15;11.27;;;;;;;32.54;37.46;100186.53;5023309;28;20155;-66
2022/08/01 08:38:27;;;;;;;18.17;11.63;;;;;;;32.66;37.25;100174.34;5027295;28;20148;-66
2022/08/01 08:40:56;;;;;;;;;;;;;;;32.91;37.81;100190.41;5023716;28;20065;-66
2022/08/01 08:43:24;;;;;;;16.13;11.00;;;;;;;33.03;36.66;100175.31;5013185;28;19936;-65
2022/08/01 08:45:52;;;;;;;19.05;11.27;;;;;;;33.00;36.52;100171.22;5031167;28;20139;-65
2022/08/01 08:48:26;;;;;;;15.68;11.48;;;;;;;33.33;36.47;100174.25;5022509;28;20056;-66
2022/08/01 08:50:57;;;;;;;19.25;11.60;;;;;;;33.76;35.86;100187.81;5017617;28;20064;-66
2022/08/01 08:53:26;;;;;;;14.98;10.30;;;;;;;34.18;35.49;100203.38;5028397;28;20151;-66
2022/08/01 08:56:01;;;;;;;17.17;10.43;;;;;;;34.56;35.26;100199.97;5023006;28;20091;-66
2022/08/01 08:58:33;;;;;;;24.17;11.95;;;;;;;34.70;34.63;100186.34;5019613;28;20063;-65
2022/08/01 09:01:01;;;;;;;14.63;10.00;;;;;;;35.04;34.56;100206.97;5018821;28;20419;-66
2022/08/01 09:03:27;;;;;;;14.13;10.20;;;;;;;35.13;34.22;100192.63;5019566;28;20049;-66
2022/08/01 09:05:54;;;;;;;16.83;10.93;;;;;;;35.37;34.02;100206.88;5021750;28;20056;-66
2022/08/01 09:08:21;;;;;;;15.55;9.80;;;;;;;35.54;33.36;100202.63;5001091;28;20064;-65
2022/08/01 09:10:48;;;;;;;17.23;10.90;;;;;;;35.71;33.34;100205.47;5019734;28;20085;-65
2022/08/01 09:13:15;;;;;;;14.52;10.82;;;;;;;35.74;33.62;100190.03;5022964;28;20049;-66
2022/08/01 09:15:45;;;;;;;13.38;9.07;;;;;;;35.99;33.51;100207.44;5025428;28;20144;-67
2022/08/01 09:18:30;;;;;;;20.77;10.02;;;;;;;36.19;33.05;100197.72;5027466;28;20093;-66
2022/08/01 09:21:06;;;;;;;18.77;10.90;;;;;;;36.25;32.87;100199.59;5021262;28;20141;-65
2022/08/01 09:23:34;;;;;;;17.60;8.85;;;;;;;36.44;32.84;100214.31;5018235;28;20143;-65
2022/08/01 09:26:01;;;;;;;16.08;9.23;;;;;;;36.59;32.34;100212.59;5020394;28;20591;-65
2022/08/01 09:28:29;;;;;;;12.40;9.43;;;;;;;36.68;32.06;100194.41;5016285;28;20575;-67
2022/08/01 09:30:57;;;;;;;13.35;7.90;;;;;;;36.85;32.61;100216.22;5012242;28;20053;-65
2022/08/01 09:33:24;;;;;;;13.15;7.15;;;;;;;36.87;32.64;100210.75;5021393;28;20167;-66
2022/08/01 09:35:57;;;;;;;11.25;6.22;;;;;;;36.74;32.76;100207.06;5023497;28;20480;-66
2022/08/01 09:38:28;;;;;;;12.45;5.90;;;;;;;36.60;33.06;100211.31;5019780;28;20134;-66
2022/08/01 09:40:58;;;;;;;10.73;5.35;;;;;;;36.43;33.06;100213.50;5014579;28;20046;-65
2022/08/01 09:43:27;;;;;;;9.27;5.28;;;;;;;36.33;33.87;100213.88;5018764;28;20046;-67
2022/08/01 09:45:55;;;;;;;11.02;6.82;;;;;;;36.39;33.33;100207.00;5023614;28;20140;-67
2022/08/01 09:48:24;;;;;;;17.17;5.72;;;;;;;36.50;33.69;100216.19;5023263;28;20111;-66
2022/08/01 09:50:56;;;;;;;16.08;6.60;;;;;;;36.61;33.12;100233.28;5025252;28;20049;-66
2022/08/01 09:53:47;;;;;;;12.07;5.97;;;;;;;36.66;33.56;100215.25;5018198;28;20508;-66
2022/08/01 09:56:21;;;;;;;10.23;6.00;;;;;;;36.89;32.63;100216.09;5014457;28;20054;-65
2022/08/01 09:58:59;;;;;;;19.08;6.75;;;;;;;36.99;33.04;100209.94;5018141;28;20053;-65
2022/08/01 10:01:41;;;;;;;13.70;6.97;;;;;;;37.21;32.15;100220.78;5022463;28;20065;-67
2022/08/01 10:04:17;;;;;;;14.55;6.38;;;;;;;37.35;32.48;100213.63;5018960;28;20108;-65
2022/08/01 10:06:49;;;;;;;10.20;6.57;;;;;;;37.43;32.42;100207.06;5018412;28;20577;-66
2022/08/01 10:09:27;;;;;;;11.80;6.43;;;;;;;37.43;32.40;100212.88;5029204;28;20461;-66
2022/08/01 10:12:07;;;;;;;14.60;6.68;;;;;;;37.41;32.37;100203.00;5020507;28;20095;-66
2022/08/01 10:14:42;;;;;;;14.02;5.78;;;;;;;37.56;32.21;100206.19;5028791;28;20068;-66
2022/08/01 10:17:17;;;;;;;14.02;6.10;;;;;;;37.61;31.99;100209.31;5022138;28;20151;-67
2022/08/01 10:19:46;;;;;;;13.82;5.65;;;;;;;37.64;31.74;100195.84;5022949;28;20118;-65
2022/08/01 10:22:17;;;;;;;11.52;5.97;;;;;;;37.81;31.80;100208.09;5022809;28;20084;-65
2022/08/01 10:24:47;;;;;;;9.40;6.30;;;;;;;37.93;31.03;100216.78;5015640;28;20061;-65
2022/08/01 10:27:16;;;;;;;11.32;6.07;;;;;;;37.91;31.47;100222.25;5019426;28;20127;-65
2022/08/01 10:30:05;;;;;;;13.10;5.78;;;;;;;37.98;31.44;100214.53;5020343;28;20041;-66
2022/08/01 10:32:50;;;;;;;12.65;5.57;;;;;;;38.00;31.13;100220.69;5025502;28;20056;-66
2022/08/01 10:35:18;;;;;;;10.40;6.03;;;;;;;37.77;30.39;100216.97;5015817;28;20064;-66
2022/08/01 10:38:06;;;;;;;10.23;4.30;;;;;;;37.56;31.16;100212.00;5017985;28;20045;-65
2022/08/01 10:40:41;;;;;;;14.13;5.43;;;;;;;37.47;30.92;100216.50;5023832;28;20415;-66
2022/08/01 10:43:10;;;;;;;8.30;5.43;;;;;;;37.60;30.58;100219.31;5023998;28;21380;-65
2022/08/01 10:45:39;;;;;;;11.35;5.95;;;;;;;37.64;30.93;100219.16;5016397;28;20061;-65
2022/08/01 10:48:20;;;;;;;10.95;5.78;;;;;;;37.63;30.69;100194.25;5015194;28;20081;-65
2022/08/01 10:50:52;;;;;;;12.48;5.18;;;;;;;37.93;30.26;100199.28;5014278;28;20061;-66
2022/08/01 10:53:24;;;;;;;11.43;5.82;;;;;;;37.89;30.76;100207.34;5016211;28;20170;-67
2022/08/01 10:56:10;;;;;;;9.07;4.90;;;;;;;38.14;30.70;100217.19;5019662;28;20045;-66
2022/08/01 10:58:42;;;;;;;15.50;5.38;;;;;;;38.27;30.23;100197.47;5012648;28;20056;-66
2022/08/01 11:01:23;;;;;;;11.50;4.85;;;;;;;38.46;30.37;100215.06;5018295;28;20059;-66
2022/08/01 11:04:00;;;;;;;11.50;6.53;;;;;;;38.49;29.72;100214.09;5019097;28;20054;-66
2022/08/01 11:06:32;;;;;;;13.88;6.20;;;;;;;38.35;30.13;100222.13;5017841;28;20057;-66
2022/08/01 11:09:02;;;;;;;12.77;5.35;;;;;;;38.24;29.81;100197.63;5020290;28;20184;-66
2022/08/01 11:11:32;;;;;;;13.80;6.10;;;;;;;38.27;29.60;100197.47;5026307;28;20411;-67
2022/08/01 11:14:12;;;;;;;11.32;5.18;;;;;;;38.47;29.47;100208.75;5020380;28;20700;-66
2022/08/01 11:16:40;;;;;;;9.35;4.80;;;;;;;38.17;28.98;100163.75;5017768;28;20053;-67
2022/08/01 11:19:11;;;;;;;9.60;5.60;;;;;;;38.38;29.18;100202.88;5019810;28;20045;-65
2022/08/01 11:21:53;;;;;;;8.00;4.93;;;;;;;38.68;29.46;100198.25;5023274;28;20164;-66
2022/08/01 11:24:48;;;;;;;8.52;5.47;;;;;;;38.71;29.27;100208.16;5021137;28;20907;-65
2022/08/01 11:27:31;;;;;;;9.95;5.25;;;;;;;38.35;29.40;100180.50;5021822;28;20061;-66
2022/08/01 11:30:08;;;;;;;13.48;4.65;;;;;;;38.43;29.33;100193.53;5016162;28;20499;-67
2022/08/01 11:32:49;;;;;;;8.73;5.35;;;;;;;38.52;29.07;100195.63;5019936;28;20095;-66
2022/08/01 11:35:37;;;;;;;11.60;6.43;;;;;;;38.51;29.03;100191.09;5020446;28;20046;-67
2022/08/01 11:38:27;;;;;;;7.45;4.80;;;;;;;38.33;29.36;100195.56;5022390;28;20049;-66